Time;durP1;ratioP1;P1;durP2;ratioP2;P2;SDS_P1;SDS_P2;PMS_P1;PMS_P2;Temp;Humidity;BMP_temperature;BMP_pressure;BME280_temperature;BME280_humidity;BME280_pressure;Samples;Min_cycle;Max_cycle;Signal;HPM_P1;HPM_P2
2023/07/18 01:57:01;;;;;;;;;;;23.80;75.10;;;-151.14;100.00;62537.16;4280385;32;2183447;-83
2023/07/18 01:59:30;;;;;;;;;;;23.80;75.20;;;23.24;100.00;62537.16;5049253;28;34853;-83
2023/07/18 02:01:59;;;;;;;;;;;23.80;75.10;;;-151.14;100.00;62537.16;5066984;28;19950;-82
2023/07/18 02:04:26;;;;;;;;;;;23.80;75.00;;;-151.14;100.00;62537.16;5050074;28;19920;-82
2023/07/18 02:06:54;;;;;;;;;;;23.80;75.00;;;-151.14;100.00;62537.16;5049121;28;19927;-82
2023/07/18 02:09:23;;;;;;;;;;;23.80;74.90;;;-151.14;100.00;62537.16;5049968;28;19927;-83
2023/07/18 02:11:50;;;;;;;;;;;23.80;74.80;;;-151.14;100.00;62537.16;5033456;28;19921;-83
2023/07/18 02:14:20;;;;;;;;;;;23.80;74.70;;;-151.14;100.00;62537.16;5067868;28;20137;-83
2023/07/18 02:16:48;;;;;;;;;;;23.80;74.70;;;-151.14;100.00;62537.16;5068697;28;19942;-82
2023/07/18 02:19:16;;;;;;;;;;;23.80;74.60;;;-151.14;100.00;62537.16;5053235;28;19926;-83
2023/07/18 02:21:44;;;;;;;;;;;23.80;74.60;;;-151.14;100.00;62537.16;5069697;28;19920;-83
2023/07/18 02:24:12;;;;;;;;;;;23.80;74.60;;;-151.14;100.00;62537.16;5053213;28;19920;-83
2023/07/18 02:26:40;;;;;;;;;;;23.80;74.40;;;-151.14;100.00;62537.16;5052177;28;19921;-83
2023/07/18 02:29:08;;;;;;;;;;;23.80;74.30;;;28.66;100.00;62537.16;5069106;28;19925;-83
2023/07/18 02:31:37;;;;;;;;;;;23.80;74.30;;;-151.14;100.00;62537.16;5052870;28;19921;-83
2023/07/18 02:34:05;;;;;;;;;;;23.80;74.20;;;28.66;100.00;62537.16;5069516;28;19920;-82
2023/07/18 02:36:33;;;;;;;;;;;23.80;74.10;;;-151.14;100.00;62537.16;5052071;28;19920;-83
2023/07/18 02:39:02;;;;;;;;;;;23.80;74.00;;;-151.14;100.00;62537.16;5069564;28;19921;-82
2023/07/18 02:41:31;;;;;;;;;;;23.80;74.10;;;23.20;100.00;62537.16;5069405;28;19920;-83
2023/07/18 02:43:59;;;;;;;;;;;23.80;74.10;;;-151.14;100.00;62537.16;5069464;28;19943;-82
2023/07/18 02:46:27;;;;;;;;;;;23.80;74.00;;;-151.14;100.00;62537.16;5067173;28;19921;-83
2023/07/18 02:48:56;;;;;;;;;;;23.80;73.90;;;-151.14;100.00;62537.16;5049518;28;19920;-82
2023/07/18 02:51:24;;;;;;;;;;;23.80;74.00;;;-151.14;100.00;62537.16;5049305;28;19987;-83
2023/07/18 02:53:53;;;;;;;;;;;23.80;74.00;;;23.20;100.00;62537.16;5049520;28;19920;-83
2023/07/18 02:56:20;;;;;;;;;;;23.80;73.80;;;-151.14;100.00;62537.16;5027538;28;19946;-82
2023/07/18 02:58:49;;;;;;;;;;;23.80;73.70;;;-151.14;100.00;62537.16;5035179;28;19927;-83
2023/07/18 03:01:19;;;;;;;;;;;23.80;73.70;;;-151.14;100.00;62537.16;5053063;28;20246;-82
2023/07/18 03:03:47;;;;;;;;;;;23.80;73.80;;;-151.14;100.00;62537.16;5035840;28;19921;-82
2023/07/18 03:06:16;;;;;;;;;;;23.80;73.70;;;-151.14;100.00;62537.16;5035027;28;19927;-82
2023/07/18 03:08:44;;;;;;;;;;;23.80;73.70;;;-151.14;100.00;62537.16;5019366;28;19927;-83
2023/07/18 03:11:12;;;;;;;;;;;23.80;73.60;;;-151.14;100.00;62537.16;5035720;28;19927;-83
2023/07/18 03:13:41;;;;;;;;;;;23.80;73.60;;;-151.14;100.00;62537.16;5035530;28;20124;-82
2023/07/18 03:16:10;;;;;;;;;;;23.80;73.60;;;-151.14;100.00;62537.16;5018628;28;19934;-82
2023/07/18 03:18:38;;;;;;;;;;;23.80;73.50;;;-151.14;100.00;62537.16;5035794;28;20139;-82
2023/07/18 03:21:07;;;;;;;;;;;23.80;73.50;;;-151.14;100.00;62537.16;5035780;28;19943;-83
2023/07/18 03:23:36;;;;;;;;;;;23.80;73.30;;;23.16;100.00;62537.16;5035366;28;19927;-82
2023/07/18 03:26:04;;;;;;;;;;;23.80;73.30;;;-151.14;100.00;62537.16;5018350;28;20123;-82
2023/07/18 03:28:32;;;;;;;;;;;23.80;73.30;;;-151.14;100.00;62537.16;5035501;28;19921;-83
2023/07/18 03:31:00;;;;;;;;;;;23.80;73.30;;;28.66;100.00;62537.16;5055256;28;19921;-82
2023/07/18 03:33:28;;;;;;;;;;;23.80;73.50;;;-151.14;100.00;62537.16;5073013;28;19920;-82
2023/07/18 03:35:56;;;;;;;;;;;23.80;73.40;;;-151.14;100.00;62537.16;5054673;28;19921;-83
2023/07/18 03:38:24;;;;;;;;;;;23.80;73.50;;;23.17;100.00;62537.16;5055329;28;19920;-83
2023/07/18 03:40:54;;;;;;;;;;;23.80;73.40;;;23.19;100.00;62537.16;5038660;28;19920;-82
2023/07/18 03:43:22;;;;;;;;;;;23.80;73.30;;;-151.14;100.00;62537.16;5038674;28;19920;-83
2023/07/18 03:45:50;;;;;;;;;;;23.80;73.40;;;-151.14;100.00;62537.16;5054579;28;19921;-83
2023/07/18 03:48:18;;;;;;;;;;;23.80;73.40;;;23.18;100.00;62537.16;5038393;28;20093;-83
2023/07/18 03:50:46;;;;;;;;;;;23.80;73.40;;;23.37;100.00;62537.16;5018831;28;19921;-83
2023/07/18 03:53:14;;;;;;;;;;;23.80;73.50;;;-151.14;100.00;62537.16;5018510;28;20360;-82
2023/07/18 03:55:43;;;;;;;;;;;23.80;73.60;;;-151.14;100.00;62537.16;5017967;28;19932;-83
2023/07/18 03:58:12;;;;;;;;;;;23.80;73.60;;;-151.14;100.00;62537.16;5034976;28;19921;-82
2023/07/18 04:00:40;;;;;;;;;;;23.80;73.70;;;-151.14;100.00;62537.16;5052767;28;19944;-82
2023/07/18 04:03:08;;;;;;;;;;;23.80;73.70;;;-151.14;100.00;62537.16;5035080;28;19921;-83
2023/07/18 04:05:36;;;;;;;;;;;23.90;73.90;;;-151.14;100.00;62537.16;5034148;28;19935;-82
2023/07/18 04:08:05;;;;;;;;;;;23.90;74.00;;;-151.14;100.00;62537.16;5033711;28;19927;-82
2023/07/18 04:10:32;;;;;;;;;;;23.90;74.10;;;-151.14;100.00;62537.16;5018460;28;19928;-83
2023/07/18 04:13:00;;;;;;;;;;;23.90;74.10;;;-151.14;100.00;62537.16;5034751;28;19927;-82
2023/07/18 04:15:30;;;;;;;;;;;23.90;74.10;;;-151.14;100.00;62537.16;5034199;28;19921;-82
2023/07/18 04:18:00;;;;;;;;;;;23.90;74.10;;;-151.14;100.00;62537.16;5052383;28;20111;-82
2023/07/18 04:20:28;;;;;;;;;;;24.00;74.30;;;-151.14;100.00;62537.16;5034614;28;19927;-83
2023/07/18 04:22:57;;;;;;;;;;;24.00;74.40;;;-151.14;100.00;62537.16;5034818;28;19921;-82
2023/07/18 04:25:26;;;;;;;;;;;24.00;74.40;;;-151.14;100.00;62537.16;5034307;28;19927;-82
2023/07/18 04:27:53;;;;;;;;;;;24.00;74.40;;;26.02;100.00;62537.16;5018056;28;20278;-82
2023/07/18 04:30:22;;;;;;;;;;;24.00;74.40;;;-151.14;100.00;62537.16;5018583;28;19927;-82
2023/07/18 04:32:51;;;;;;;;;;;24.10;74.60;;;-151.14;100.00;62537.16;5034682;28;19921;-82
2023/07/18 04:35:19;;;;;;;;;;;24.10;74.70;;;-151.14;100.00;62537.16;5034686;28;19921;-83
2023/07/18 04:37:46;;;;;;;;;;;24.10;74.80;;;-151.14;100.00;62537.16;5033811;28;19927;-82
2023/07/18 04:40:15;;;;;;;;;;;24.20;74.90;;;-151.14;100.00;62537.16;5034584;28;20140;-82
2023/07/18 04:42:43;;;;;;;;;;;24.20;74.80;;;-151.14;100.00;62537.16;5034222;28;19927;-83
2023/07/18 04:45:11;;;;;;;;;;;24.20;74.30;;;-151.14;100.00;62537.16;5034278;28;19927;-82
2023/07/18 04:47:39;;;;;;;;;;;24.20;74.30;;;-151.14;100.00;62537.16;5044636;28;19926;-83
2023/07/18 04:50:10;;;;;;;;;;;24.30;74.50;;;26.02;100.00;62537.16;5053965;28;19943;-83
2023/07/18 04:52:38;;;;;;;;;;;24.30;74.30;;;-151.14;100.00;62537.16;5037593;28;19953;-83
2023/07/18 04:55:06;;;;;;;;;;;24.30;74.10;;;-151.14;100.00;62537.16;5054216;28;19926;-83
2023/07/18 04:57:34;;;;;;;;;;;24.40;73.80;;;-151.14;100.00;62537.16;5053557;28;19927;-82
2023/07/18 05:00:03;;;;;;;;;;;24.40;73.80;;;-151.14;100.00;62537.16;5053809;28;19920;-83
2023/07/18 05:02:30;;;;;;;;;;;24.50;73.70;;;-151.14;100.00;62537.16;5053808;28;19920;-83
2023/07/18 05:04:58;;;;;;;;;;;24.50;73.50;;;-151.14;100.00;62537.16;5053810;28;19943;-83
2023/07/18 05:07:27;;;;;;;;;;;24.50;73.50;;;-151.14;100.00;62537.16;5053177;28;19921;-82
2023/07/18 05:09:55;;;;;;;;;;;24.60;74.30;;;-151.14;100.00;62537.16;5053614;28;20215;-82
2023/07/18 05:12:23;;;;;;;;;;;24.60;73.60;;;-151.14;100.00;62537.16;5053797;28;19920;-82
2023/07/18 05:14:51;;;;;;;;;;;24.60;73.70;;;-151.14;100.00;62537.16;5071590;28;19936;-82
2023/07/18 05:17:19;;;;;;;;;;;24.60;73.80;;;-151.14;100.00;62537.16;5036567;28;19920;-82
2023/07/18 05:19:47;;;;;;;;;;;24.60;73.80;;;-151.14;100.00;62537.16;5036738;28;19927;-82
2023/07/18 05:22:14;;;;;;;;;;;24.70;74.10;;;24.10;100.00;62537.16;5037101;28;19935;-82
2023/07/18 05:24:44;;;;;;;;;;;24.70;73.90;;;-151.14;100.00;62537.16;5071345;28;19926;-82
2023/07/18 05:27:12;;;;;;;;;;;24.70;73.80;;;-151.14;100.00;62537.16;5036297;28;19920;-82
2023/07/18 05:29:40;;;;;;;;;;;24.70;73.80;;;-151.14;100.00;62537.16;5053670;28;19926;-82
2023/07/18 05:32:08;;;;;;;;;;;24.70;73.70;;;24.15;100.00;62537.16;5053542;28;19921;-82
2023/07/18 05:34:36;;;;;;;;;;;24.80;73.30;;;-151.14;100.00;62537.16;5053567;28;20207;-82
2023/07/18 05:37:04;;;;;;;;;;;24.70;73.30;;;-151.14;100.00;62537.16;5070623;28;19921;-82
2023/07/18 05:39:32;;;;;;;;;;;24.70;73.30;;;-151.14;100.00;62537.16;5071199;28;19921;-82
2023/07/18 05:42:02;;;;;;;;;;;24.80;73.00;;;-151.14;100.00;62537.16;5053453;28;19920;-82
2023/07/18 05:44:30;;;;;;;;;;;24.80;73.00;;;24.23;100.00;62537.16;5071212;28;19920;-82
2023/07/18 05:46:59;;;;;;;;;;;24.80;73.00;;;-151.14;100.00;62537.16;5064896;28;19921;-82
2023/07/18 05:49:27;;;;;;;;;;;24.80;72.80;;;24.26;100.00;62537.16;5016919;28;19925;-82
2023/07/18 05:51:55;;;;;;;;;;;24.80;72.70;;;-151.14;100.00;62537.16;5017116;28;19927;-82
2023/07/18 05:54:23;;;;;;;;;;;24.80;72.70;;;-151.14;100.00;62537.16;5016899;28;19921;-82
2023/07/18 05:56:51;;;;;;;;;;;24.90;72.70;;;24.34;100.00;62537.16;5016241;28;19920;-82
2023/07/18 05:59:20;;;;;;;;;;;24.90;72.80;;;-151.14;100.00;62537.16;5033390;28;19921;-82
2023/07/18 06:01:48;;;;;;;;;;;25.00;72.70;;;187.61;100.00;62537.16;5033277;28;19921;-82
2023/07/18 06:04:16;;;;;;;;;;;25.00;72.50;;;-151.14;100.00;62537.16;5016739;28;20120;-82
2023/07/18 06:06:44;;;;;;;;;;;25.00;72.40;;;-151.14;100.00;62537.16;5032469;28;19928;-82
2023/07/18 06:09:12;;;;;;;;;;;25.10;72.20;;;24.48;100.00;62537.16;5016835;28;19920;-82
2023/07/18 06:11:40;;;;;;;;;;;25.00;72.00;;;-151.14;100.00;62537.16;5016834;28;19927;-82
2023/07/18 06:14:08;;;;;;;;;;;25.10;71.80;;;-151.14;100.00;62537.16;5017115;28;20111;-82
2023/07/18 06:16:37;;;;;;;;;;;25.10;71.70;;;24.41;100.00;62537.16;5016450;28;19921;-82
2023/07/18 06:19:05;;;;;;;;;;;25.00;71.80;;;-151.14;100.00;62537.16;5016532;28;19921;-82
2023/07/18 06:21:34;;;;;;;;;;;25.00;71.90;;;-151.14;100.00;62537.16;5016623;28;20127;-82
2023/07/18 06:24:02;;;;;;;;;;;25.00;72.10;;;-151.14;100.00;62537.16;5050724;28;20089;-82
2023/07/18 06:26:30;;;;;;;;;;;25.00;72.30;;;-151.14;100.00;62537.16;5032591;28;19943;-82
2023/07/18 06:28:58;;;;;;;;;;;24.90;72.40;;;-151.14;100.00;62537.16;5050666;28;20227;-82
2023/07/18 06:31:26;;;;;;;;;;;24.90;72.50;;;-151.14;100.00;62537.16;5017082;28;20235;-82
2023/07/18 06:33:55;;;;;;;;;;;24.90;72.80;;;-151.14;100.00;62537.16;5036466;28;20120;-82
2023/07/18 06:36:23;;;;;;;;;;;24.80;72.90;;;26.02;100.00;62537.16;5035716;28;19920;-82
2023/07/18 06:38:51;;;;;;;;;;;24.80;73.30;;;-151.14;100.00;62537.16;5019845;28;20216;-82
2023/07/18 06:41:19;;;;;;;;;;;24.80;72.90;;;-151.14;100.00;62537.16;5036440;28;19928;-82
2023/07/18 06:43:48;;;;;;;;;;;24.90;73.10;;;-151.14;100.00;62537.16;5036343;28;19921;-82
2023/07/18 06:46:15;;;;;;;;;;;24.90;73.40;;;24.39;100.00;84518.75;5052996;28;19964;-82
2023/07/18 06:48:43;;;;;;;;;;;24.90;73.20;;;-151.14;100.00;62537.16;5055754;28;19921;-82
2023/07/18 06:51:14;;;;;;;;;;;25.00;73.00;;;-151.14;100.00;62537.16;5039396;28;19921;-82
2023/07/18 06:53:42;;;;;;;;;;;25.00;73.00;;;-151.14;100.00;62537.16;5055917;28;19920;-82
2023/07/18 06:56:10;;;;;;;;;;;25.10;72.60;;;24.56;100.00;62537.16;5055072;28;19921;-82
2023/07/18 06:58:38;;;;;;;;;;;25.10;72.50;;;-151.14;100.00;62537.16;5039341;28;19986;-82
2023/07/18 07:01:06;;;;;;;;;;;25.10;72.40;;;24.58;100.00;62537.16;5039157;28;19920;-82
2023/07/18 07:03:34;;;;;;;;;;;25.10;72.30;;;187.61;100.00;62537.16;5073627;28;19921;-82
2023/07/18 07:06:02;;;;;;;;;;;25.10;72.40;;;-151.14;100.00;62537.16;5072933;28;19927;-82
2023/07/18 07:08:31;;;;;;;;;;;25.20;72.30;;;-151.14;100.00;62537.16;5073603;28;19921;-82
2023/07/18 07:11:03;;;;;;;;;;;25.20;72.10;;;-151.14;100.00;62537.16;5055428;28;19920;-81
2023/07/18 07:13:32;;;;;;;;;;;25.20;71.90;;;-151.14;100.00;62537.16;5039237;28;20238;-82
2023/07/18 07:16:00;;;;;;;;;;;25.20;72.00;;;-151.14;100.00;62537.16;5071789;28;19927;-82
2023/07/18 07:18:28;;;;;;;;;;;25.20;72.10;;;-151.14;100.00;62537.16;5055632;28;19927;-82
2023/07/18 07:20:56;;;;;;;;;;;25.30;72.00;;;-151.14;100.00;62537.16;5055440;28;20238;-82
2023/07/18 07:23:24;;;;;;;;;;;25.30;71.80;;;-151.14;100.00;62537.16;5038915;28;19927;-82
2023/07/18 07:25:53;;;;;;;;;;;25.30;71.60;;;-151.14;100.00;62537.16;5038148;28;19920;-82
2023/07/18 07:28:22;;;;;;;;;;;25.30;71.70;;;-151.14;100.00;62537.16;5055552;28;19920;-82
2023/07/18 07:30:51;;;;;;;;;;;25.40;71.90;;;-151.14;100.00;62537.16;5073107;28;19927;-82
2023/07/18 07:33:18;;;;;;;;;;;25.40;71.70;;;-151.14;100.00;62537.16;5055381;28;19927;-82
2023/07/18 07:35:46;;;;;;;;;;;25.30;71.60;;;18.16;100.00;62537.16;5038071;28;19935;-82
2023/07/18 07:38:15;;;;;;;;;;;25.30;71.60;;;24.72;100.00;62537.16;5038829;28;19921;-82
2023/07/18 07:40:43;;;;;;;;;;;25.30;71.70;;;-151.14;100.00;62537.16;5038707;28;19931;-82
2023/07/18 07:43:12;;;;;;;;;;;25.30;71.70;;;-151.14;100.00;62537.16;5038716;28;19927;-82
2023/07/18 07:45:40;;;;;;;;;;;25.20;71.90;;;-151.14;100.00;62537.16;5037938;28;19928;-82
2023/07/18 07:48:07;;;;;;;;;;;25.20;71.90;;;-151.14;100.00;62537.16;5023370;28;20101;-82
2023/07/18 07:50:35;;;;;;;;;;;25.20;71.80;;;187.61;100.00;62537.16;5052856;28;19927;-83
2023/07/18 07:53:04;;;;;;;;;;;25.20;72.00;;;187.61;100.00;62537.16;5052988;28;19921;-82
2023/07/18 07:55:32;;;;;;;;;;;25.20;72.00;;;-151.14;100.00;62537.16;5017847;28;19921;-82
2023/07/18 07:58:00;;;;;;;;;;;25.20;72.10;;;-151.14;100.00;62537.16;5034911;28;20115;-82
2023/07/18 08:00:29;;;;;;;;;;;25.20;72.00;;;-151.14;100.00;62537.16;5035205;28;20090;-82
2023/07/18 08:02:57;;;;;;;;;;;25.20;72.00;;;24.70;100.00;62537.16;5035130;28;19921;-82
2023/07/18 08:05:25;;;;;;;;;;;25.20;72.00;;;-151.14;100.00;62537.16;5018177;28;19920;-82
2023/07/18 08:07:53;;;;;;;;;;;25.20;71.90;;;-151.14;100.00;62537.16;5034784;28;20230;-82
2023/07/18 08:10:21;;;;;;;;;;;25.30;71.90;;;-151.14;100.00;62537.16;5034853;28;20097;-82
2023/07/18 08:12:48;;;;;;;;;;;25.30;71.80;;;-151.14;100.00;62537.16;5034843;28;19921;-82
2023/07/18 08:15:16;;;;;;;;;;;25.30;71.70;;;26.02;100.00;62537.16;5052519;28;19921;-82
2023/07/18 08:17:46;;;;;;;;;;;25.40;71.70;;;-151.14;100.00;62537.16;5034248;28;19927;-82
2023/07/18 08:20:14;;;;;;;;;;;25.40;71.50;;;-151.14;100.00;62537.16;5018312;28;19927;-82
2023/07/18 08:22:41;;;;;;;;;;;25.40;71.40;;;-151.14;100.00;62537.16;5052376;28;19935;-83
2023/07/18 08:25:09;;;;;;;;;;;25.40;71.30;;;24.85;100.00;62537.16;5052325;28;20212;-82
2023/07/18 08:27:37;;;;;;;;;;;25.40;71.20;;;-151.14;100.00;62537.16;5017498;28;19943;-82
2023/07/18 08:30:06;;;;;;;;;;;25.40;71.20;;;-151.14;100.00;62537.16;5034630;28;19920;-83
2023/07/18 08:32:34;;;;;;;;;;;25.40;71.10;;;-151.14;100.00;62537.16;5034433;28;19927;-83
2023/07/18 08:35:04;;;;;;;;;;;25.40;71.20;;;24.84;100.00;62537.16;5052296;28;19979;-83
2023/07/18 08:37:32;;;;;;;;;;;25.40;71.10;;;24.85;100.00;62537.16;5017237;28;19920;-82
2023/07/18 08:39:59;;;;;;;;;;;25.40;71.20;;;-151.14;100.00;62537.16;5052188;28;19974;-82
2023/07/18 08:42:28;;;;;;;;;;;25.40;71.20;;;-151.14;100.00;62537.16;5017870;28;19925;-82
2023/07/18 08:44:55;;;;;;;;;;;25.40;71.20;;;-151.14;100.00;62537.16;5052110;28;19943;-82
2023/07/18 08:47:24;;;;;;;;;;;25.40;71.20;;;24.87;100.00;62537.16;5026023;28;19943;-82
2023/07/18 08:49:52;;;;;;;;;;;25.40;71.20;;;-151.14;100.00;62537.16;5053999;28;19920;-82
2023/07/18 08:52:21;;;;;;;;;;;25.40;71.00;;;-151.14;100.00;62537.16;5070774;28;19924;-82
2023/07/18 08:54:49;;;;;;;;;;;25.40;71.10;;;-151.14;100.00;62537.16;5071362;28;19943;-82
2023/07/18 08:57:17;;;;;;;;;;;25.40;71.00;;;24.88;100.00;62537.16;5053279;28;19920;-82
2023/07/18 08:59:45;;;;;;;;;;;25.40;71.00;;;-151.14;100.00;62537.16;5054024;28;19927;-82
2023/07/18 09:02:13;;;;;;;;;;;25.40;71.00;;;24.87;100.00;62537.16;5070754;28;19921;-82
2023/07/18 09:04:41;;;;;;;;;;;25.40;70.90;;;-151.14;100.00;62537.16;5054157;28;20116;-82
2023/07/18 09:07:10;;;;;;;;;;;25.40;70.90;;;-151.14;100.00;62537.16;5053346;28;20211;-82
2023/07/18 09:09:40;;;;;;;;;;;25.40;70.90;;;-151.14;100.00;62537.16;5071655;28;20131;-82
2023/07/18 09:12:09;;;;;;;;;;;25.40;71.00;;;-151.14;100.00;62537.16;5051066;28;19927;-82
2023/07/18 09:14:37;;;;;;;;;;;25.40;70.90;;;-151.14;100.00;62537.16;5035514;28;19982;-82
2023/07/18 09:17:07;;;;;;;;;;;25.40;70.90;;;-151.14;100.00;62537.16;5050551;28;20036;-82
2023/07/18 09:28:03;;;;;;;;;;;25.40;70.80;;;-151.14;100.00;62537.16;5057581;28;19913;-82
2023/07/18 09:30:34;;;;;;;;;;;25.40;70.80;;;24.82;100.00;62537.16;5019736;28;19920;-82
2023/07/18 09:33:25;;;;;;;;;;;25.40;71.00;;;-151.14;100.00;62537.16;5035083;28;19920;-82
2023/07/18 09:40:00;;;;;;;;;;;25.40;71.00;;;-151.14;100.00;62537.16;5070872;28;20223;-81
2023/07/18 09:42:28;;;;;;;;;;;25.40;71.00;;;-151.14;100.00;62537.16;5053487;28;19924;-81
2023/07/18 09:44:57;;;;;;;;;;;25.40;71.10;;;-151.14;100.00;62537.16;5070151;28;19920;-82
2023/07/18 09:47:26;;;;;;;;;;;25.40;71.10;;;-151.14;100.00;62537.16;5062722;28;19929;-82
2023/07/18 09:49:54;;;;;;;;;;;25.40;71.00;;;-151.14;100.00;62537.16;5069899;28;19920;-82
2023/07/18 09:52:25;;;;;;;;;;;25.40;71.10;;;24.78;100.00;62537.16;5071021;28;19921;-82
2023/07/18 09:54:53;;;;;;;;;;;25.40;71.00;;;-151.14;100.00;62537.16;5053221;28;19927;-82
2023/07/18 09:57:21;;;;;;;;;;;25.40;71.00;;;-151.14;100.00;62537.16;5069202;28;20131;-82
2023/07/18 09:59:49;;;;;;;;;;;25.40;71.10;;;24.80;100.00;62537.16;5069976;28;19926;-82
2023/07/18 10:02:18;;;;;;;;;;;25.40;71.00;;;-151.14;100.00;62537.16;5069755;28;19927;-82
2023/07/18 10:04:48;;;;;;;;;;;25.40;71.00;;;-151.14;100.00;62537.16;5070103;28;19927;-81
2023/07/18 10:07:16;;;;;;;;;;;25.40;71.00;;;-151.14;100.00;62537.16;5054019;28;19920;-82
2023/07/18 10:09:44;;;;;;;;;;;25.40;71.00;;;-151.14;100.00;62537.16;5056629;28;19927;-82
2023/07/18 10:12:12;;;;;;;;;;;25.40;71.00;;;25.02;100.00;62537.16;5056648;28;20216;-82
2023/07/18 10:14:52;;;;;;;;;;;25.50;71.00;;;26.02;100.00;62537.16;5073228;28;19927;-81
2023/07/18 10:17:28;;;;;;;;;;;25.40;71.00;;;24.84;100.00;62537.16;5055551;28;19927;-82
2023/07/18 10:19:56;;;;;;;;;;;25.40;70.90;;;-151.14;100.00;62537.16;5073200;28;19958;-82
2023/07/18 10:22:27;;;;;;;;;;;25.40;71.00;;;26.02;100.00;62537.16;5074215;28;19920;-82
2023/07/18 10:24:59;;;;;;;;;;;25.40;71.00;;;-151.14;100.00;62537.16;5073328;28;19927;-82
2023/07/18 10:27:35;;;;;;;;;;;25.40;71.00;;;-151.14;100.00;62537.16;5055638;28;20230;-82
2023/07/18 10:30:04;;;;;;;;;;;25.40;71.10;;;24.81;100.00;62537.16;5056238;28;19930;-82
2023/07/18 10:32:33;;;;;;;;;;;25.40;71.10;;;-151.14;100.00;62537.16;5072794;28;19990;-82
2023/07/18 10:35:02;;;;;;;;;;;25.40;71.10;;;-151.14;100.00;62537.16;5056249;28;19920;-82
2023/07/18 10:37:30;;;;;;;;;;;25.40;71.00;;;-151.14;100.00;62537.16;5072031;28;19928;-82
2023/07/18 10:39:59;;;;;;;;;;;25.40;71.10;;;-151.14;100.00;62537.16;5056167;28;19921;-82
2023/07/18 10:42:30;;;;;;;;;;;25.40;71.00;;;24.80;100.00;62537.16;5074043;28;19921;-82
2023/07/18 10:44:59;;;;;;;;;;;25.40;71.00;;;-151.14;100.00;62537.16;5073959;28;19921;-82
2023/07/18 10:47:27;;;;;;;;;;;25.40;70.80;;;26.02;100.00;62537.16;5045842;28;19928;-82
2023/07/18 10:49:56;;;;;;;;;;;25.40;70.90;;;26.02;100.00;62537.16;5035970;28;19921;-82
2023/07/18 10:52:24;;;;;;;;;;;25.40;71.00;;;-151.14;100.00;62537.16;5036002;28;19927;-82
2023/07/18 10:54:53;;;;;;;;;;;25.40;71.00;;;-151.14;100.00;62537.16;5035974;28;19953;-82
2023/07/18 10:57:25;;;;;;;;;;;25.40;71.00;;;24.77;100.00;62537.16;5034994;28;19920;-82
2023/07/18 10:59:52;;;;;;;;;;;25.40;71.00;;;24.76;100.00;62537.16;5052531;28;19963;-82
2023/07/18 11:02:20;;;;;;;;;;;25.40;71.60;;;24.75;100.00;62537.16;5053624;28;19928;-82
2023/07/18 11:04:48;;;;;;;;;;;25.40;70.70;;;26.02;100.00;62537.16;5053558;28;19927;-82
2023/07/18 11:07:17;;;;;;;;;;;25.40;70.70;;;24.75;100.00;62537.16;5051881;28;19930;-82
2023/07/18 11:09:45;;;;;;;;;;;25.40;70.80;;;-151.14;100.00;62537.16;5035778;28;20123;-82
2023/07/18 11:12:18;;;;;;;;;;;25.40;70.70;;;26.02;100.00;62537.16;5035726;28;19921;-82
2023/07/18 11:14:46;;;;;;;;;;;25.30;70.80;;;-151.14;100.00;62537.16;5052465;28;19927;-82
2023/07/18 11:17:14;;;;;;;;;;;25.30;70.40;;;187.61;100.00;62537.16;5034651;28;19921;-82
2023/07/18 11:19:42;;;;;;;;;;;25.30;70.50;;;187.61;100.00;62537.16;5035651;28;19921;-82
2023/07/18 11:22:13;;;;;;;;;;;25.40;70.50;;;26.02;100.00;62537.16;5035478;28;20115;-82
2023/07/18 11:24:43;;;;;;;;;;;25.30;70.30;;;187.61;100.00;62537.16;5053349;28;19922;-82
2023/07/18 11:27:15;;;;;;;;;;;25.30;70.50;;;187.61;100.00;62537.16;5041422;28;20119;-82
2023/07/18 11:29:50;;;;;;;;;;;25.30;70.40;;;-151.14;100.00;62537.16;5038762;28;19920;-82
2023/07/18 11:32:33;;;;;;;;;;;25.30;70.50;;;187.61;100.00;62537.16;5038844;28;19920;-81
2023/07/18 11:35:01;;;;;;;;;;;25.30;70.50;;;-151.14;100.00;62537.16;5055256;28;19921;-82
2023/07/18 11:37:29;;;;;;;;;;;25.30;70.50;;;-151.14;100.00;62537.16;5054618;28;20120;-82
2023/07/18 11:39:59;;;;;;;;;;;25.30;70.30;;;-151.14;100.00;62537.16;5038603;28;19927;-82
2023/07/18 11:42:45;;;;;;;;;;;25.30;70.20;;;-151.14;100.00;62537.16;5055190;28;19920;-82
2023/07/18 11:45:13;;;;;;;;;;;25.30;70.40;;;-151.14;100.00;62537.16;5055323;28;19934;-82
2023/07/18 11:47:44;;;;;;;;;;;25.30;70.10;;;-151.14;100.00;62537.16;5037568;28;20220;-82
2023/07/18 11:50:13;;;;;;;;;;;25.30;70.20;;;-151.14;100.00;62537.16;5038419;28;19927;-82
2023/07/18 11:52:41;;;;;;;;;;;25.30;70.40;;;-151.14;100.00;62537.16;5072915;28;19927;-82
2023/07/18 11:55:10;;;;;;;;;;;25.30;70.30;;;187.61;100.00;62537.16;5055029;28;19927;-82
2023/07/18 11:57:38;;;;;;;;;;;25.20;70.30;;;24.68;100.00;62537.16;5037659;28;19920;-81
2023/07/18 12:00:08;;;;;;;;;;;25.20;70.10;;;-151.14;100.00;62537.16;5055031;28;20305;-82
2023/07/18 12:02:41;;;;;;;;;;;25.30;70.20;;;24.68;100.00;62537.16;5054897;28;19920;-82
2023/07/18 12:05:09;;;;;;;;;;;25.20;69.90;;;26.02;100.00;62537.16;5038342;28;19921;-82
2023/07/18 12:07:37;;;;;;;;;;;25.20;70.10;;;-151.14;100.00;62537.16;5054096;28;19921;-82
2023/07/18 12:10:06;;;;;;;;;;;25.20;70.10;;;24.67;100.00;62537.16;5054586;28;20120;-82
2023/07/18 12:12:36;;;;;;;;;;;25.30;69.50;;;-151.14;100.00;62537.16;5038296;28;19934;-82
2023/07/18 12:15:05;;;;;;;;;;;25.30;69.40;;;24.67;100.00;62537.16;5038128;28;19955;-82
2023/07/18 12:17:33;;;;;;;;;;;25.30;68.90;;;-151.14;100.00;62537.16;5054188;28;20212;-82
2023/07/18 12:20:01;;;;;;;;;;;25.30;69.30;;;-151.14;100.00;62537.16;5054470;28;19920;-81
2023/07/18 12:22:29;;;;;;;;;;;25.20;69.60;;;187.61;100.00;62537.16;5054791;28;19928;-82
2023/07/18 12:24:57;;;;;;;;;;;25.20;68.30;;;187.61;100.00;62537.16;5054424;28;19942;-82
2023/07/18 12:27:24;;;;;;;;;;;25.30;68.70;;;-151.14;100.00;62537.16;5071820;28;19920;-82
2023/07/18 12:29:54;;;;;;;;;;;25.20;68.50;;;-151.14;100.00;62537.16;5071210;28;19920;-82
2023/07/18 12:32:21;;;;;;;;;;;25.30;68.20;;;187.61;100.00;62537.16;5054443;28;19927;-82
2023/07/18 12:34:49;;;;;;;;;;;25.20;68.70;;;-151.14;100.00;62537.16;5072122;28;19927;-82
2023/07/18 12:37:17;;;;;;;;;;;25.30;68.90;;;187.61;100.00;62537.16;5053646;28;20230;-83
2023/07/18 12:39:45;;;;;;;;;;;25.30;68.50;;;-151.14;100.00;62537.16;5054222;28;19920;-82
2023/07/18 12:42:13;;;;;;;;;;;25.20;68.10;;;-151.14;100.00;62537.16;5054449;28;19920;-82
2023/07/18 12:44:42;;;;;;;;;;;25.20;68.40;;;-151.14;100.00;62537.16;5037606;28;19921;-82
2023/07/18 12:47:11;;;;;;;;;;;25.20;67.80;;;-151.14;100.00;62537.16;5046578;28;19927;-82
2023/07/18 12:49:39;;;;;;;;;;;25.30;68.00;;;-151.14;100.00;62537.16;5034376;28;19921;-82
2023/07/18 12:52:07;;;;;;;;;;;25.30;66.40;;;-151.14;100.00;62537.16;5017758;28;19942;-82
2023/07/18 12:54:35;;;;;;;;;;;25.20;67.70;;;187.61;100.00;62537.16;5017714;28;19921;-82
2023/07/18 12:57:04;;;;;;;;;;;25.20;66.50;;;187.61;100.00;62537.16;5033403;28;19921;-81
2023/07/18 12:59:32;;;;;;;;;;;25.30;67.90;;;187.61;100.00;62537.16;5034222;28;19928;-81
2023/07/18 13:02:00;;;;;;;;;;;25.20;67.70;;;-151.14;100.00;62537.16;5017792;28;20381;-82
2023/07/18 13:04:29;;;;;;;;;;;25.20;68.10;;;187.61;100.00;62537.16;5034052;28;19921;-82
2023/07/18 13:06:57;;;;;;;;;;;25.20;67.40;;;187.61;100.00;62537.16;5033581;28;19920;-82
2023/07/18 13:09:25;;;;;;;;;;;25.20;66.90;;;-151.14;100.00;62537.16;5028645;28;19921;-82
2023/07/18 13:11:53;;;;;;;;;;;25.20;68.10;;;187.61;100.00;62537.16;5053705;28;19927;-81